createdAt,value
2022-08-22T00:02:04.383Z,16.76
2022-08-22T00:07:12.217Z,16.72
2022-08-22T00:12:20.087Z,16.7
2022-08-22T00:17:26.626Z,16.65
2022-08-22T00:22:34.569Z,16.6
2022-08-22T00:27:42.621Z,16.54
2022-08-22T00:32:50.313Z,16.53
2022-08-22T00:37:57.978Z,16.46
2022-08-22T00:44:36.701Z,16.44
2022-08-22T00:49:43.373Z,16.36
2022-08-22T00:54:51.103Z,16.33
2022-08-22T00:59:58.786Z,16.3
2022-08-22T01:05:06.840Z,16.25
2022-08-22T01:10:15.259Z,16.2
2022-08-22T01:15:23.177Z,16.16
2022-08-22T01:20:31.283Z,16.14
2022-08-22T01:25:37.844Z,16.08
2022-08-22T01:30:44.847Z,16.02
2022-08-22T01:35:53.044Z,15.98
2022-08-22T01:41:01.821Z,15.93
2022-08-22T01:46:10.854Z,15.86
2022-08-22T01:51:19.128Z,15.8
2022-08-22T01:56:27.165Z,15.76
2022-08-22T02:01:34.461Z,15.75
2022-08-22T02:06:42.363Z,15.72
2022-08-22T02:11:49.989Z,15.66
2022-08-22T02:16:58.326Z,15.65
2022-08-22T02:22:05.679Z,15.63
2022-08-22T02:27:13.520Z,15.62
2022-08-22T02:32:20.694Z,15.62
2022-08-22T02:37:29.046Z,15.58
2022-08-22T02:42:37.525Z,15.57
2022-08-22T02:47:45.302Z,15.54
2022-08-22T02:52:53.523Z,15.53
2022-08-22T02:58:01.775Z,15.51
2022-08-22T03:03:09.591Z,15.52
2022-08-22T03:08:17.521Z,15.5
2022-08-22T03:13:33.577Z,15.5
2022-08-22T03:18:42.004Z,15.52
2022-08-22T03:23:48.697Z,15.49
2022-08-22T03:30:28.079Z,15.52
2022-08-22T03:35:34.006Z,15.48
2022-08-22T03:40:41.635Z,15.4
2022-08-22T03:45:49.510Z,15.38
2022-08-22T03:50:57.532Z,15.35
2022-08-22T03:56:12.396Z,15.34
2022-08-22T04:01:19.831Z,15.35
2022-08-22T04:06:26.945Z,15.34
2022-08-22T04:11:34.618Z,15.34
2022-08-22T04:16:42.519Z,15.32
2022-08-22T04:21:49.659Z,15.24
2022-08-22T04:26:57.650Z,15.21
2022-08-22T04:32:06.122Z,15.22
2022-08-22T04:37:13.216Z,15.26
2022-08-22T04:42:20.724Z,15.26
2022-08-22T04:47:28.218Z,15.21
2022-08-22T04:52:35.994Z,15.15
2022-08-22T04:57:43.989Z,15.16
2022-08-22T05:02:52.316Z,15.16
2022-08-22T05:08:00.394Z,15.18
2022-08-22T05:13:08.886Z,15.24
2022-08-22T05:18:17.141Z,15.26
2022-08-22T05:23:24.423Z,15.26
2022-08-22T05:28:32.622Z,15.2
2022-08-22T05:33:41.211Z,15.2
2022-08-22T05:38:49.403Z,15.22
2022-08-22T05:43:57.527Z,15.26
2022-08-22T05:49:06.002Z,15.28
2022-08-22T05:54:13.339Z,15.24
2022-08-22T05:59:21.177Z,15.24
2022-08-22T06:04:29.600Z,15.22
2022-08-22T06:09:37.691Z,15.24
2022-08-22T06:14:45.412Z,15.28
2022-08-22T06:19:53.810Z,15.29
2022-08-22T06:25:03.779Z,15.36
2022-08-22T06:30:10.926Z,15.44
2022-08-22T06:35:18.487Z,15.44
2022-08-22T06:40:26.405Z,15.49
2022-08-22T06:45:34.411Z,15.65
2022-08-22T06:50:43.380Z,15.68
2022-08-22T06:55:52.498Z,15.85
2022-08-22T07:01:00.087Z,15.92
2022-08-22T07:06:08.725Z,16.06
2022-08-22T07:11:15.433Z,16.06
2022-08-22T07:16:23.444Z,15.96
2022-08-22T07:21:32.605Z,15.94
2022-08-22T07:26:39.663Z,15.92
2022-08-22T07:31:47.422Z,15.76
2022-08-22T07:36:55.767Z,15.8
2022-08-22T07:42:03.511Z,15.86
2022-08-22T07:47:11.617Z,15.92
2022-08-22T07:52:18.785Z,15.92
2022-08-22T07:57:28.347Z,15.85
2022-08-22T08:02:35.741Z,15.86
2022-08-22T08:07:43.965Z,15.76
2022-08-22T08:12:51.490Z,15.78
2022-08-22T08:17:57.317Z,15.82
2022-08-22T08:23:05.650Z,15.76
2022-08-22T08:28:14.166Z,15.72
2022-08-22T08:33:21.758Z,15.74
2022-08-22T08:38:28.945Z,15.72
2022-08-22T08:43:36.408Z,15.82
2022-08-22T08:48:44.341Z,15.78
2022-08-22T08:53:52.625Z,15.85
2022-08-22T08:59:00.053Z,16.06
2022-08-22T09:04:08.410Z,16.2
2022-08-22T09:09:16.376Z,16.36
2022-08-22T09:14:23.906Z,16.42
2022-08-22T09:19:32.086Z,16.38
2022-08-22T09:24:39.919Z,16.48
2022-08-22T09:29:47.669Z,16.65
2022-08-22T09:34:54.293Z,16.6
2022-08-22T09:40:02.069Z,16.88
2022-08-22T09:45:10.486Z,17.1
2022-08-22T09:50:18.009Z,17.39
2022-08-22T09:55:25.684Z,17.64
2022-08-22T10:00:34.135Z,17.86
2022-08-22T10:05:41.490Z,17.82
2022-08-22T10:10:49.177Z,17.71
2022-08-22T10:15:56.628Z,17.64
2022-08-22T10:21:04.537Z,17.76
2022-08-22T10:26:52.427Z,17.75
2022-08-22T10:32:00.214Z,17.74
2022-08-22T10:37:06.784Z,17.48
2022-08-22T10:42:14.622Z,17.24
2022-08-22T10:47:21.827Z,17.08
2022-08-22T10:52:29.862Z,17.06
2022-08-22T10:57:36.871Z,17.01
2022-08-22T11:02:44.084Z,16.96
2022-08-22T11:07:51.713Z,17.0
2022-08-22T11:12:58.982Z,17.06
2022-08-22T11:18:15.515Z,17.19
2022-08-22T11:23:23.099Z,17.21
2022-08-22T11:28:30.649Z,17.39
2022-08-22T11:33:39.115Z,17.64
2022-08-22T11:38:47.761Z,17.59
2022-08-22T11:43:56.778Z,17.52
2022-08-22T11:49:04.573Z,17.46
2022-08-22T11:54:12.485Z,17.54
2022-08-22T11:59:20.393Z,17.58
2022-08-22T12:04:28.247Z,17.61
2022-08-22T12:09:34.953Z,17.75
2022-08-22T12:14:43.190Z,17.73
2022-08-22T12:19:51.475Z,17.83
2022-08-22T12:25:00.077Z,17.91
2022-08-22T12:30:08.730Z,17.94
2022-08-22T12:35:15.451Z,18.03
2022-08-22T12:40:23.943Z,18.22
2022-08-22T12:45:31.031Z,17.64
2022-08-22T12:50:39.139Z,17.48
2022-08-22T12:55:46.148Z,17.3
2022-08-22T13:00:54.622Z,17.32
2022-08-22T13:06:03.615Z,17.38
2022-08-22T13:11:11.738Z,17.26
2022-08-22T13:16:19.834Z,17.32
2022-08-22T13:21:28.405Z,17.46
2022-08-22T13:26:37.530Z,17.5
2022-08-22T13:31:44.573Z,17.46
2022-08-22T13:36:52.720Z,17.35
2022-08-22T13:42:00.528Z,17.23
2022-08-22T13:47:08.172Z,17.3
2022-08-22T13:52:14.955Z,17.48
2022-08-22T13:57:23.289Z,17.4
2022-08-22T14:02:30.625Z,17.5
2022-08-22T14:07:37.799Z,17.59
2022-08-22T14:12:45.657Z,17.62
2022-08-22T14:17:54.085Z,17.69
2022-08-22T14:23:00.511Z,17.62
2022-08-22T14:28:09.677Z,17.58
2022-08-22T14:33:17.528Z,17.59
2022-08-22T14:38:24.980Z,17.48
2022-08-22T14:43:33.207Z,17.4
2022-08-22T14:48:41.003Z,17.25
2022-08-22T14:53:47.677Z,17.09
2022-08-22T14:58:54.940Z,17.01
2022-08-22T15:04:03.667Z,16.94
2022-08-22T15:09:10.089Z,17.08
2022-08-22T15:14:18.967Z,17.21
2022-08-22T15:19:26.669Z,17.36
2022-08-22T15:24:34.256Z,17.36
2022-08-22T15:29:42.489Z,17.44
2022-08-22T15:34:50.238Z,17.54
2022-08-22T15:39:57.680Z,17.58
2022-08-22T15:45:04.296Z,17.51
2022-08-22T15:50:11.419Z,17.51
2022-08-22T15:55:19.070Z,17.33
2022-08-22T16:00:27.595Z,17.16
2022-08-22T16:05:34.305Z,17.01
2022-08-22T16:10:41.496Z,16.89
2022-08-22T16:15:48.099Z,16.78
2022-08-22T16:20:56.704Z,16.7
2022-08-22T16:26:05.532Z,16.65
2022-08-22T16:31:19.439Z,16.65
2022-08-22T16:36:27.070Z,16.54
2022-08-22T16:41:33.852Z,16.4
2022-08-22T16:46:43.108Z,16.34
2022-08-22T16:51:49.921Z,16.33
2022-08-22T16:56:57.185Z,16.22
2022-08-22T17:02:04.474Z,16.01
2022-08-22T17:07:13.368Z,15.82
2022-08-22T17:12:20.738Z,15.67
2022-08-22T17:17:27.288Z,15.58
2022-08-22T17:22:35.317Z,15.58
2022-08-22T17:27:43.023Z,15.54
2022-08-22T17:32:50.141Z,15.53
2022-08-22T17:37:57.784Z,15.52
2022-08-22T17:43:06.331Z,15.44
2022-08-22T17:48:13.830Z,15.44
2022-08-22T17:53:21.324Z,15.46
2022-08-22T17:58:29.453Z,15.46
2022-08-22T18:03:37.291Z,15.46
2022-08-22T18:08:50.212Z,15.47
2022-08-22T18:13:56.894Z,15.48
2022-08-22T18:19:03.845Z,15.52
2022-08-22T18:24:11.128Z,15.55
2022-08-22T18:29:18.330Z,15.58
2022-08-22T18:34:25.523Z,15.6
2022-08-22T18:39:32.764Z,15.62
2022-08-22T18:44:41.043Z,15.66
2022-08-22T18:49:48.754Z,15.7
2022-08-22T18:54:56.881Z,15.74
2022-08-22T19:00:03.420Z,15.72
2022-08-22T19:05:12.059Z,15.74
2022-08-22T19:10:20.438Z,15.72
2022-08-22T19:15:26.971Z,15.7
2022-08-22T19:20:35.569Z,15.68
2022-08-22T19:25:43.264Z,15.66
2022-08-22T19:30:51.111Z,15.66
2022-08-22T19:35:58.333Z,15.67
2022-08-22T19:41:05.676Z,15.65
2022-08-22T19:46:13.567Z,15.67
2022-08-22T19:51:21.750Z,15.62
2022-08-22T19:56:29.235Z,15.66
2022-08-22T20:01:37.323Z,15.66
2022-08-22T20:06:45.508Z,15.65
2022-08-22T20:11:52.756Z,15.65
2022-08-22T20:17:01.175Z,15.63
2022-08-22T20:22:09.163Z,15.66
2022-08-22T20:27:17.184Z,15.67
2022-08-22T20:32:24.960Z,15.66
2022-08-22T20:37:32.888Z,15.68
2022-08-22T20:42:40.411Z,15.7
2022-08-22T20:47:48.866Z,15.72
2022-08-22T20:52:56.535Z,15.67
2022-08-22T20:58:03.785Z,15.42
2022-08-22T21:03:11.432Z,15.21
2022-08-22T21:08:19.146Z,15.16
2022-08-22T21:13:27.422Z,15.14
2022-08-22T21:18:36.084Z,15.11
2022-08-22T21:23:43.649Z,15.02
2022-08-22T21:28:51.418Z,14.98
2022-08-22T21:33:58.887Z,14.94
2022-08-22T21:39:07.261Z,14.94
2022-08-22T21:44:15.450Z,14.9
2022-08-22T21:49:22.124Z,14.94
2022-08-22T21:54:30.014Z,14.94
2022-08-22T21:59:38.296Z,14.93
2022-08-22T22:04:46.804Z,14.94
2022-08-22T22:09:54.773Z,14.96
2022-08-22T22:15:02.789Z,15.0
2022-08-22T22:20:09.831Z,15.04
2022-08-22T22:25:18.054Z,15.07
2022-08-22T22:30:26.333Z,15.12
2022-08-22T22:35:34.612Z,15.12
2022-08-22T22:40:43.864Z,15.13
2022-08-22T22:45:51.573Z,15.14
2022-08-22T22:50:58.804Z,15.13
2022-08-22T22:56:06.245Z,15.12
2022-08-22T23:01:14.064Z,15.12
2022-08-22T23:06:30.281Z,15.16
2022-08-22T23:11:37.627Z,15.15
2022-08-22T23:16:45.711Z,15.17
2022-08-22T23:21:53.539Z,15.18
2022-08-22T23:27:01.484Z,15.19
2022-08-22T23:32:08.596Z,15.18
2022-08-22T23:37:15.099Z,15.2
2022-08-22T23:42:23.023Z,15.18
2022-08-22T23:47:30.860Z,15.18
2022-08-22T23:52:38.009Z,15.16
2022-08-22T23:57:45.871Z,15.09
